sensor_id;sensor_type;location;lat;lon;timestamp;temperature;humidity
18839;DHT22;9548;56.920;14.804;2022-09-21T00:01:57;4.20;99.90
18839;DHT22;9548;56.920;14.804;2022-09-21T00:04:25;4.10;99.90
18839;DHT22;9548;56.920;14.804;2022-09-21T00:06:52;4.10;99.90
18839;DHT22;9548;56.920;14.804;2022-09-21T00:09:19;4.10;99.90
18839;DHT22;9548;56.920;14.804;2022-09-21T00:11:46;4.00;99.90
18839;DHT22;9548;56.920;14.804;2022-09-21T00:14:13;3.90;99.90
18839;DHT22;9548;56.920;14.804;2022-09-21T00:16:41;3.90;99.90
18839;DHT22;9548;56.920;14.804;2022-09-21T00:19:09;3.90;99.90
18839;DHT22;9548;56.920;14.804;2022-09-21T00:21:38;3.90;99.90
18839;DHT22;9548;56.920;14.804;2022-09-21T00:24:05;3.90;99.90
18839;DHT22;9548;56.920;14.804;2022-09-21T00:26:32;4.00;99.90
18839;DHT22;9548;56.920;14.804;2022-09-21T00:29:01;4.00;99.90
18839;DHT22;9548;56.920;14.804;2022-09-21T00:31:29;3.90;99.90
18839;DHT22;9548;56.920;14.804;2022-09-21T00:33:57;3.90;99.90
18839;DHT22;9548;56.920;14.804;2022-09-21T00:36:25;3.80;99.90
18839;DHT22;9548;56.920;14.804;2022-09-21T00:38:55;3.70;99.90
18839;DHT22;9548;56.920;14.804;2022-09-21T00:41:22;3.60;99.90
18839;DHT22;9548;56.920;14.804;2022-09-21T00:44:24;3.60;99.90
18839;DHT22;9548;56.920;14.804;2022-09-21T00:46:53;3.50;99.90
18839;DHT22;9548;56.920;14.804;2022-09-21T00:49:22;3.40;99.90
18839;DHT22;9548;56.920;14.804;2022-09-21T00:51:50;3.30;99.90
18839;DHT22;9548;56.920;14.804;2022-09-21T00:54:22;3.30;99.90
18839;DHT22;9548;56.920;14.804;2022-09-21T00:56:51;3.30;99.90
18839;DHT22;9548;56.920;14.804;2022-09-21T00:59:19;3.30;99.90
18839;DHT22;9548;56.920;14.804;2022-09-21T01:01:47;3.20;99.90
18839;DHT22;9548;56.920;14.804;2022-09-21T01:04:14;3.30;99.90
18839;DHT22;9548;56.920;14.804;2022-09-21T01:06:43;3.30;99.90
18839;DHT22;9548;56.920;14.804;2022-09-21T01:09:12;3.40;99.90
18839;DHT22;9548;56.920;14.804;2022-09-21T01:11:51;3.50;99.90
18839;DHT22;9548;56.920;14.804;2022-09-21T01:14:39;3.50;99.90
18839;DHT22;9548;56.920;14.804;2022-09-21T01:17:14;3.50;99.90
18839;DHT22;9548;56.920;14.804;2022-09-21T01:20:06;3.50;99.90
18839;DHT22;9548;56.920;14.804;2022-09-21T01:22:44;3.60;99.90
18839;DHT22;9548;56.920;14.804;2022-09-21T01:25:21;3.60;99.90
18839;DHT22;9548;56.920;14.804;2022-09-21T01:28:01;3.70;99.90
18839;DHT22;9548;56.920;14.804;2022-09-21T01:30:35;3.80;99.90
18839;DHT22;9548;56.920;14.804;2022-09-21T01:33:05;3.70;99.90
18839;DHT22;9548;56.920;14.804;2022-09-21T01:35:38;3.70;99.90
18839;DHT22;9548;56.920;14.804;2022-09-21T01:38:09;3.60;99.90
18839;DHT22;9548;56.920;14.804;2022-09-21T01:40:42;3.60;99.90
18839;DHT22;9548;56.920;14.804;2022-09-21T01:43:13;3.50;99.90
18839;DHT22;9548;56.920;14.804;2022-09-21T01:45:46;3.50;99.90
18839;DHT22;9548;56.920;14.804;2022-09-21T01:48:16;3.50;99.90
18839;DHT22;9548;56.920;14.804;2022-09-21T01:50:47;3.40;99.90
18839;DHT22;9548;56.920;14.804;2022-09-21T01:53:20;3.60;99.90
18839;DHT22;9548;56.920;14.804;2022-09-21T01:55:51;3.60;99.90
18839;DHT22;9548;56.920;14.804;2022-09-21T01:58:23;3.50;99.90
18839;DHT22;9548;56.920;14.804;2022-09-21T02:00:55;3.50;99.90
18839;DHT22;9548;56.920;14.804;2022-09-21T02:03:27;3.50;99.90
18839;DHT22;9548;56.920;14.804;2022-09-21T02:05:56;3.40;99.90
18839;DHT22;9548;56.920;14.804;2022-09-21T02:08:24;3.40;99.90
18839;DHT22;9548;56.920;14.804;2022-09-21T02:10:53;3.30;99.90
18839;DHT22;9548;56.920;14.804;2022-09-21T02:13:22;3.30;99.90
18839;DHT22;9548;56.920;14.804;2022-09-21T02:16:11;3.20;99.90
18839;DHT22;9548;56.920;14.804;2022-09-21T02:18:47;3.20;99.90
18839;DHT22;9548;56.920;14.804;2022-09-21T02:21:24;3.10;99.90
18839;DHT22;9548;56.920;14.804;2022-09-21T02:23:59;3.10;99.90
18839;DHT22;9548;56.920;14.804;2022-09-21T02:26:33;3.00;99.90
18839;DHT22;9548;56.920;14.804;2022-09-21T02:29:09;3.00;99.90
18839;DHT22;9548;56.920;14.804;2022-09-21T02:31:46;3.00;99.90
18839;DHT22;9548;56.920;14.804;2022-09-21T02:34:18;3.00;99.90
18839;DHT22;9548;56.920;14.804;2022-09-21T02:36:50;3.00;99.90
18839;DHT22;9548;56.920;14.804;2022-09-21T02:39:29;3.00;99.90
18839;DHT22;9548;56.920;14.804;2022-09-21T02:42:02;3.00;99.90
18839;DHT22;9548;56.920;14.804;2022-09-21T02:44:34;2.90;99.90
18839;DHT22;9548;56.920;14.804;2022-09-21T02:47:08;2.90;99.90
18839;DHT22;9548;56.920;14.804;2022-09-21T02:49:41;2.90;99.90
18839;DHT22;9548;56.920;14.804;2022-09-21T02:52:13;2.90;99.90
18839;DHT22;9548;56.920;14.804;2022-09-21T02:54:43;2.90;99.90
18839;DHT22;9548;56.920;14.804;2022-09-21T02:57:13;3.00;99.90
18839;DHT22;9548;56.920;14.804;2022-09-21T02:59:42;3.00;99.90
18839;DHT22;9548;56.920;14.804;2022-09-21T03:02:11;3.00;99.90
18839;DHT22;9548;56.920;14.804;2022-09-21T03:04:38;3.10;99.90
18839;DHT22;9548;56.920;14.804;2022-09-21T03:07:06;3.10;99.90
18839;DHT22;9548;56.920;14.804;2022-09-21T03:09:33;3.10;99.90
18839;DHT22;9548;56.920;14.804;2022-09-21T03:12:00;3.10;99.90
18839;DHT22;9548;56.920;14.804;2022-09-21T03:14:27;3.00;99.90
18839;DHT22;9548;56.920;14.804;2022-09-21T03:16:55;2.90;99.90
18839;DHT22;9548;56.920;14.804;2022-09-21T03:19:24;2.80;99.90
18839;DHT22;9548;56.920;14.804;2022-09-21T03:21:51;2.70;99.90
18839;DHT22;9548;56.920;14.804;2022-09-21T03:24:19;2.60;99.90
18839;DHT22;9548;56.920;14.804;2022-09-21T03:27:06;2.60;99.90
18839;DHT22;9548;56.920;14.804;2022-09-21T03:29:33;2.50;99.90
18839;DHT22;9548;56.920;14.804;2022-09-21T03:32:01;2.40;99.90
18839;DHT22;9548;56.920;14.804;2022-09-21T03:34:29;2.40;99.90
18839;DHT22;9548;56.920;14.804;2022-09-21T03:36:58;2.30;99.90
18839;DHT22;9548;56.920;14.804;2022-09-21T03:39:26;2.20;99.90
18839;DHT22;9548;56.920;14.804;2022-09-21T03:41:53;2.20;99.90
18839;DHT22;9548;56.920;14.804;2022-09-21T03:44:24;2.20;99.90
18839;DHT22;9548;56.920;14.804;2022-09-21T03:46:51;2.10;99.90
18839;DHT22;9548;56.920;14.804;2022-09-21T03:49:19;2.10;99.90
18839;DHT22;9548;56.920;14.804;2022-09-21T03:51:47;2.10;99.90
18839;DHT22;9548;56.920;14.804;2022-09-21T03:54:14;2.00;99.90
18839;DHT22;9548;56.920;14.804;2022-09-21T03:56:41;2.00;99.90
18839;DHT22;9548;56.920;14.804;2022-09-21T03:59:08;1.90;99.90
18839;DHT22;9548;56.920;14.804;2022-09-21T04:01:35;1.90;99.90
18839;DHT22;9548;56.920;14.804;2022-09-21T04:04:02;1.90;99.90
18839;DHT22;9548;56.920;14.804;2022-09-21T04:06:29;2.00;99.90
18839;DHT22;9548;56.920;14.804;2022-09-21T04:08:57;2.00;99.90
18839;DHT22;9548;56.920;14.804;2022-09-21T04:11:24;2.00;99.90
18839;DHT22;9548;56.920;14.804;2022-09-21T04:13:52;2.00;99.90
18839;DHT22;9548;56.920;14.804;2022-09-21T04:16:21;2.00;99.90
18839;DHT22;9548;56.920;14.804;2022-09-21T04:18:49;2.00;99.90
18839;DHT22;9548;56.920;14.804;2022-09-21T04:21:16;2.00;99.90
18839;DHT22;9548;56.920;14.804;2022-09-21T04:23:43;2.00;99.90
18839;DHT22;9548;56.920;14.804;2022-09-21T04:26:23;1.90;99.90
18839;DHT22;9548;56.920;14.804;2022-09-21T04:28:51;1.90;99.90
18839;DHT22;9548;56.920;14.804;2022-09-21T04:31:18;1.80;99.90
18839;DHT22;9548;56.920;14.804;2022-09-21T04:33:47;1.80;99.90
18839;DHT22;9548;56.920;14.804;2022-09-21T04:36:15;1.80;99.90
18839;DHT22;9548;56.920;14.804;2022-09-21T04:38:42;1.90;99.90
18839;DHT22;9548;56.920;14.804;2022-09-21T04:41:09;2.00;99.90
18839;DHT22;9548;56.920;14.804;2022-09-21T04:43:40;2.10;99.90
18839;DHT22;9548;56.920;14.804;2022-09-21T04:46:08;2.20;99.90
18839;DHT22;9548;56.920;14.804;2022-09-21T04:48:36;2.20;99.90
18839;DHT22;9548;56.920;14.804;2022-09-21T04:51:03;2.30;99.90
18839;DHT22;9548;56.920;14.804;2022-09-21T04:53:32;2.40;99.90
18839;DHT22;9548;56.920;14.804;2022-09-21T04:55:59;2.50;99.90
18839;DHT22;9548;56.920;14.804;2022-09-21T04:58:26;2.50;99.90
18839;DHT22;9548;56.920;14.804;2022-09-21T05:00:55;2.70;99.90
18839;DHT22;9548;56.920;14.804;2022-09-21T05:03:22;2.90;99.90
18839;DHT22;9548;56.920;14.804;2022-09-21T05:05:51;3.10;99.90
18839;DHT22;9548;56.920;14.804;2022-09-21T05:08:19;3.40;99.90
18839;DHT22;9548;56.920;14.804;2022-09-21T05:11:08;3.60;99.90
18839;DHT22;9548;56.920;14.804;2022-09-21T05:13:35;3.90;99.90
18839;DHT22;9548;56.920;14.804;2022-09-21T05:16:03;4.20;99.90
18839;DHT22;9548;56.920;14.804;2022-09-21T05:18:31;4.30;99.90
18839;DHT22;9548;56.920;14.804;2022-09-21T05:20:59;4.50;99.90
18839;DHT22;9548;56.920;14.804;2022-09-21T05:23:26;4.60;99.90
18839;DHT22;9548;56.920;14.804;2022-09-21T05:25:54;4.70;99.90
18839;DHT22;9548;56.920;14.804;2022-09-21T05:28:22;4.80;99.90
18839;DHT22;9548;56.920;14.804;2022-09-21T05:30:52;4.80;99.90
18839;DHT22;9548;56.920;14.804;2022-09-21T05:33:22;4.90;99.90
18839;DHT22;9548;56.920;14.804;2022-09-21T05:36:00;5.00;99.90
18839;DHT22;9548;56.920;14.804;2022-09-21T05:38:28;5.10;99.90
18839;DHT22;9548;56.920;14.804;2022-09-21T05:40:56;5.20;99.90
18839;DHT22;9548;56.920;14.804;2022-09-21T05:43:23;5.30;99.90
18839;DHT22;9548;56.920;14.804;2022-09-21T05:45:54;5.50;99.90
18839;DHT22;9548;56.920;14.804;2022-09-21T05:48:28;5.60;99.90
18839;DHT22;9548;56.920;14.804;2022-09-21T05:51:02;5.70;99.90
18839;DHT22;9548;56.920;14.804;2022-09-21T05:53:47;5.90;99.90
18839;DHT22;9548;56.920;14.804;2022-09-21T05:56:23;6.10;99.90
18839;DHT22;9548;56.920;14.804;2022-09-21T05:59:01;6.20;99.90
18839;DHT22;9548;56.920;14.804;2022-09-21T06:01:40;6.30;99.90
18839;DHT22;9548;56.920;14.804;2022-09-21T06:04:12;6.40;99.90
18839;DHT22;9548;56.920;14.804;2022-09-21T06:06:39;6.40;99.90
18839;DHT22;9548;56.920;14.804;2022-09-21T06:09:06;6.50;99.90
18839;DHT22;9548;56.920;14.804;2022-09-21T06:11:33;6.50;99.90
18839;DHT22;9548;56.920;14.804;2022-09-21T06:14:00;6.50;99.90
18839;DHT22;9548;56.920;14.804;2022-09-21T06:16:36;6.60;99.90
18839;DHT22;9548;56.920;14.804;2022-09-21T06:19:03;6.60;99.90
18839;DHT22;9548;56.920;14.804;2022-09-21T06:21:31;6.70;99.90
18839;DHT22;9548;56.920;14.804;2022-09-21T06:23:58;6.90;99.90
18839;DHT22;9548;56.920;14.804;2022-09-21T06:26:26;6.90;99.90
18839;DHT22;9548;56.920;14.804;2022-09-21T06:28:53;7.00;99.90
18839;DHT22;9548;56.920;14.804;2022-09-21T06:31:21;7.00;99.90
18839;DHT22;9548;56.920;14.804;2022-09-21T06:33:47;7.10;99.90
18839;DHT22;9548;56.920;14.804;2022-09-21T06:36:15;7.20;99.90
18839;DHT22;9548;56.920;14.804;2022-09-21T06:38:43;7.40;99.90
18839;DHT22;9548;56.920;14.804;2022-09-21T06:41:10;7.50;99.90
18839;DHT22;9548;56.920;14.804;2022-09-21T06:43:37;7.50;99.90
18839;DHT22;9548;56.920;14.804;2022-09-21T06:46:05;7.70;99.90
18839;DHT22;9548;56.920;14.804;2022-09-21T06:48:33;7.80;99.90
18839;DHT22;9548;56.920;14.804;2022-09-21T06:51:01;7.90;99.90
18839;DHT22;9548;56.920;14.804;2022-09-21T06:53:29;8.00;99.90
18839;DHT22;9548;56.920;14.804;2022-09-21T06:56:01;8.00;99.90
18839;DHT22;9548;56.920;14.804;2022-09-21T06:58:29;8.10;99.90
18839;DHT22;9548;56.920;14.804;2022-09-21T07:00:56;8.30;99.90
18839;DHT22;9548;56.920;14.804;2022-09-21T07:03:23;8.50;99.90
18839;DHT22;9548;56.920;14.804;2022-09-21T07:05:51;8.60;99.90
18839;DHT22;9548;56.920;14.804;2022-09-21T07:08:18;8.60;99.90
18839;DHT22;9548;56.920;14.804;2022-09-21T07:10:45;8.50;99.90
18839;DHT22;9548;56.920;14.804;2022-09-21T07:13:13;8.50;99.90
18839;DHT22;9548;56.920;14.804;2022-09-21T07:15:42;8.40;99.90
18839;DHT22;9548;56.920;14.804;2022-09-21T07:18:12;8.40;99.90
18839;DHT22;9548;56.920;14.804;2022-09-21T07:20:39;8.40;99.90
18839;DHT22;9548;56.920;14.804;2022-09-21T07:23:10;8.40;99.90
18839;DHT22;9548;56.920;14.804;2022-09-21T07:25:39;8.40;99.90
18839;DHT22;9548;56.920;14.804;2022-09-21T07:28:06;8.50;99.90
18839;DHT22;9548;56.920;14.804;2022-09-21T07:30:35;8.50;99.90
18839;DHT22;9548;56.920;14.804;2022-09-21T07:33:02;8.50;99.90
18839;DHT22;9548;56.920;14.804;2022-09-21T07:35:29;8.60;99.90
18839;DHT22;9548;56.920;14.804;2022-09-21T07:37:57;8.70;99.90
18839;DHT22;9548;56.920;14.804;2022-09-21T07:40:24;8.70;99.90
18839;DHT22;9548;56.920;14.804;2022-09-21T07:42:50;8.80;99.90
18839;DHT22;9548;56.920;14.804;2022-09-21T07:45:18;8.80;99.90
18839;DHT22;9548;56.920;14.804;2022-09-21T07:47:46;8.90;99.90
18839;DHT22;9548;56.920;14.804;2022-09-21T07:50:13;9.00;99.90
18839;DHT22;9548;56.920;14.804;2022-09-21T07:52:40;9.00;99.90
18839;DHT22;9548;56.920;14.804;2022-09-21T07:55:07;9.00;99.90
18839;DHT22;9548;56.920;14.804;2022-09-21T07:57:34;9.10;99.90
18839;DHT22;9548;56.920;14.804;2022-09-21T08:00:18;9.20;99.90
18839;DHT22;9548;56.920;14.804;2022-09-21T08:02:47;9.20;99.90
18839;DHT22;9548;56.920;14.804;2022-09-21T08:05:14;9.30;99.90
18839;DHT22;9548;56.920;14.804;2022-09-21T08:07:41;9.50;99.90
18839;DHT22;9548;56.920;14.804;2022-09-21T08:10:09;9.60;99.90
18839;DHT22;9548;56.920;14.804;2022-09-21T08:12:36;9.80;99.90
18839;DHT22;9548;56.920;14.804;2022-09-21T08:15:03;10.00;99.90
18839;DHT22;9548;56.920;14.804;2022-09-21T08:17:30;10.30;99.90
18839;DHT22;9548;56.920;14.804;2022-09-21T08:19:59;10.70;99.90
18839;DHT22;9548;56.920;14.804;2022-09-21T08:22:27;11.00;99.90
18839;DHT22;9548;56.920;14.804;2022-09-21T08:24:54;11.20;99.90
18839;DHT22;9548;56.920;14.804;2022-09-21T08:27:21;11.40;99.90
18839;DHT22;9548;56.920;14.804;2022-09-21T08:29:49;11.60;99.90
18839;DHT22;9548;56.920;14.804;2022-09-21T08:32:16;11.80;99.90
18839;DHT22;9548;56.920;14.804;2022-09-21T08:34:43;11.90;99.90
18839;DHT22;9548;56.920;14.804;2022-09-21T08:37:12;12.10;99.90
18839;DHT22;9548;56.920;14.804;2022-09-21T08:39:38;12.20;99.90
18839;DHT22;9548;56.920;14.804;2022-09-21T08:42:19;12.50;99.90
18839;DHT22;9548;56.920;14.804;2022-09-21T08:44:53;12.80;99.90
18839;DHT22;9548;56.920;14.804;2022-09-21T08:47:31;12.90;99.90
18839;DHT22;9548;56.920;14.804;2022-09-21T08:50:02;12.90;99.90
18839;DHT22;9548;56.920;14.804;2022-09-21T08:52:31;13.20;99.90
18839;DHT22;9548;56.920;14.804;2022-09-21T08:55:02;13.30;99.90
18839;DHT22;9548;56.920;14.804;2022-09-21T08:57:32;13.50;99.90
18839;DHT22;9548;56.920;14.804;2022-09-21T09:00:00;13.60;99.90
18839;DHT22;9548;56.920;14.804;2022-09-21T09:02:39;13.60;99.90
18839;DHT22;9548;56.920;14.804;2022-09-21T09:05:19;13.70;99.90
18839;DHT22;9548;56.920;14.804;2022-09-21T09:08:13;13.90;99.90
18839;DHT22;9548;56.920;14.804;2022-09-21T09:10:52;13.80;99.90
18839;DHT22;9548;56.920;14.804;2022-09-21T09:13:38;13.70;99.90
18839;DHT22;9548;56.920;14.804;2022-09-21T09:16:15;13.80;99.90
18839;DHT22;9548;56.920;14.804;2022-09-21T09:18:49;13.80;99.90
18839;DHT22;9548;56.920;14.804;2022-09-21T09:21:21;14.10;99.90
18839;DHT22;9548;56.920;14.804;2022-09-21T09:23:53;14.30;99.90
18839;DHT22;9548;56.920;14.804;2022-09-21T09:26:28;14.60;99.90
18839;DHT22;9548;56.920;14.804;2022-09-21T09:29:01;14.80;99.90
18839;DHT22;9548;56.920;14.804;2022-09-21T09:31:31;14.90;99.90
18839;DHT22;9548;56.920;14.804;2022-09-21T09:34:00;15.10;99.90
18839;DHT22;9548;56.920;14.804;2022-09-21T09:36:32;15.30;99.90
18839;DHT22;9548;56.920;14.804;2022-09-21T09:39:04;15.30;99.90
18839;DHT22;9548;56.920;14.804;2022-09-21T09:44:59;15.70;99.90
18839;DHT22;9548;56.920;14.804;2022-09-21T09:47:37;16.30;99.90
18839;DHT22;9548;56.920;14.804;2022-09-21T09:50:10;17.00;99.90
18839;DHT22;9548;56.920;14.804;2022-09-21T09:52:39;17.50;99.90
18839;DHT22;9548;56.920;14.804;2022-09-21T09:55:15;18.10;99.90
18839;DHT22;9548;56.920;14.804;2022-09-21T09:57:45;19.00;99.90
18839;DHT22;9548;56.920;14.804;2022-09-21T10:00:13;19.30;99.90
18839;DHT22;9548;56.920;14.804;2022-09-21T10:02:49;20.20;99.90
18839;DHT22;9548;56.920;14.804;2022-09-21T10:05:22;20.40;99.90
18839;DHT22;9548;56.920;14.804;2022-09-21T10:07:50;21.10;99.90
18839;DHT22;9548;56.920;14.804;2022-09-21T10:10:31;22.30;99.90
18839;DHT22;9548;56.920;14.804;2022-09-21T10:13:08;23.60;98.00
18839;DHT22;9548;56.920;14.804;2022-09-21T10:15:41;24.90;96.20
18839;DHT22;9548;56.920;14.804;2022-09-21T10:18:16;26.10;95.20
18839;DHT22;9548;56.920;14.804;2022-09-21T10:20:54;27.10;90.90
18839;DHT22;9548;56.920;14.804;2022-09-21T10:23:22;27.40;87.90
18839;DHT22;9548;56.920;14.804;2022-09-21T10:25:55;27.40;84.50
18839;DHT22;9548;56.920;14.804;2022-09-21T10:28:23;26.70;83.50
18839;DHT22;9548;56.920;14.804;2022-09-21T10:31:07;26.70;84.10
18839;DHT22;9548;56.920;14.804;2022-09-21T10:33:44;27.20;84.00
18839;DHT22;9548;56.920;14.804;2022-09-21T10:36:27;28.30;81.80
18839;DHT22;9548;56.920;14.804;2022-09-21T10:38:57;29.20;78.80
18839;DHT22;9548;56.920;14.804;2022-09-21T10:41:37;30.00;76.70
18839;DHT22;9548;56.920;14.804;2022-09-21T10:44:12;30.90;75.60
18839;DHT22;9548;56.920;14.804;2022-09-21T10:46:41;31.80;73.30
18839;DHT22;9548;56.920;14.804;2022-09-21T10:49:14;32.30;68.70
18839;DHT22;9548;56.920;14.804;2022-09-21T10:51:45;32.90;68.40
18839;DHT22;9548;56.920;14.804;2022-09-21T10:54:19;33.80;66.10
18839;DHT22;9548;56.920;14.804;2022-09-21T10:56:58;34.50;62.80
18839;DHT22;9548;56.920;14.804;2022-09-21T10:59:27;35.10;59.80
18839;DHT22;9548;56.920;14.804;2022-09-21T11:01:56;34.80;57.80
18839;DHT22;9548;56.920;14.804;2022-09-21T11:04:41;33.80;58.40
18839;DHT22;9548;56.920;14.804;2022-09-21T11:07:15;33.20;56.70
18839;DHT22;9548;56.920;14.804;2022-09-21T11:09:47;32.20;58.00
18839;DHT22;9548;56.920;14.804;2022-09-21T11:12:34;31.80;58.30
18839;DHT22;9548;56.920;14.804;2022-09-21T11:15:14;31.00;59.40
18839;DHT22;9548;56.920;14.804;2022-09-21T11:17:46;30.50;59.10
18839;DHT22;9548;56.920;14.804;2022-09-21T11:20:21;30.20;61.40
18839;DHT22;9548;56.920;14.804;2022-09-21T11:22:58;31.10;59.40
18839;DHT22;9548;56.920;14.804;2022-09-21T11:25:33;32.90;57.90
18839;DHT22;9548;56.920;14.804;2022-09-21T11:28:05;34.00;55.30
18839;DHT22;9548;56.920;14.804;2022-09-21T11:30:55;34.40;55.40
18839;DHT22;9548;56.920;14.804;2022-09-21T11:33:35;32.50;54.20
18839;DHT22;9548;56.920;14.804;2022-09-21T11:36:14;29.40;57.20
18839;DHT22;9548;56.920;14.804;2022-09-21T11:38:51;27.80;60.30
18839;DHT22;9548;56.920;14.804;2022-09-21T11:41:32;28.60;59.70
18839;DHT22;9548;56.920;14.804;2022-09-21T11:44:23;30.10;58.00
18839;DHT22;9548;56.920;14.804;2022-09-21T11:46:58;31.70;56.20
18839;DHT22;9548;56.920;14.804;2022-09-21T11:49:40;33.20;55.20
18839;DHT22;9548;56.920;14.804;2022-09-21T11:52:19;32.90;54.40
18839;DHT22;9548;56.920;14.804;2022-09-21T11:55:01;29.50;56.00
18839;DHT22;9548;56.920;14.804;2022-09-21T11:57:36;27.90;57.80
18839;DHT22;9548;56.920;14.804;2022-09-21T12:00:13;26.10;61.50
18839;DHT22;9548;56.920;14.804;2022-09-21T12:03:20;24.70;63.10
18839;DHT22;9548;56.920;14.804;2022-09-21T12:06:09;23.70;66.20
18839;DHT22;9548;56.920;14.804;2022-09-21T12:08:47;22.40;69.60
18839;DHT22;9548;56.920;14.804;2022-09-21T12:11:27;21.70;71.50
18839;DHT22;9548;56.920;14.804;2022-09-21T12:14:00;20.80;73.90
18839;DHT22;9548;56.920;14.804;2022-09-21T12:16:36;20.90;74.50
18839;DHT22;9548;56.920;14.804;2022-09-21T12:19:11;22.10;73.50
18839;DHT22;9548;56.920;14.804;2022-09-21T12:21:43;24.40;71.40
18839;DHT22;9548;56.920;14.804;2022-09-21T12:24:14;27.50;64.60
18839;DHT22;9548;56.920;14.804;2022-09-21T12:26:49;30.30;61.10
18839;DHT22;9548;56.920;14.804;2022-09-21T12:29:20;32.70;57.70
18839;DHT22;9548;56.920;14.804;2022-09-21T12:31:58;34.30;54.80
18839;DHT22;9548;56.920;14.804;2022-09-21T12:34:33;33.30;54.10
18839;DHT22;9548;56.920;14.804;2022-09-21T12:37:07;33.60;53.00
18839;DHT22;9548;56.920;14.804;2022-09-21T12:39:39;34.00;52.90
18839;DHT22;9548;56.920;14.804;2022-09-21T12:42:22;34.80;51.70
18839;DHT22;9548;56.920;14.804;2022-09-21T12:44:53;34.50;48.10
18839;DHT22;9548;56.920;14.804;2022-09-21T12:47:28;33.60;49.60
18839;DHT22;9548;56.920;14.804;2022-09-21T12:50:04;33.30;50.10
18839;DHT22;9548;56.920;14.804;2022-09-21T12:52:34;32.10;50.70
18839;DHT22;9548;56.920;14.804;2022-09-21T12:55:12;31.80;51.30
18839;DHT22;9548;56.920;14.804;2022-09-21T12:57:50;32.40;49.70
18839;DHT22;9548;56.920;14.804;2022-09-21T13:00:21;33.70;49.20
18839;DHT22;9548;56.920;14.804;2022-09-21T13:02:53;34.80;48.60
18839;DHT22;9548;56.920;14.804;2022-09-21T13:05:32;33.70;49.60
18839;DHT22;9548;56.920;14.804;2022-09-21T13:08:09;33.50;48.60
18839;DHT22;9548;56.920;14.804;2022-09-21T13:10:43;31.60;49.80
18839;DHT22;9548;56.920;14.804;2022-09-21T13:13:23;30.30;52.30
18839;DHT22;9548;56.920;14.804;2022-09-21T13:15:51;29.30;52.70
18839;DHT22;9548;56.920;14.804;2022-09-21T13:18:23;28.00;54.40
18839;DHT22;9548;56.920;14.804;2022-09-21T13:20:51;25.90;56.80
18839;DHT22;9548;56.920;14.804;2022-09-21T13:23:23;23.80;59.50
18839;DHT22;9548;56.920;14.804;2022-09-21T13:25:59;22.50;62.70
18839;DHT22;9548;56.920;14.804;2022-09-21T13:29:00;21.40;67.40
18839;DHT22;9548;56.920;14.804;2022-09-21T13:31:51;20.60;71.10
18839;DHT22;9548;56.920;14.804;2022-09-21T13:34:29;19.80;75.30
18839;DHT22;9548;56.920;14.804;2022-09-21T13:43:24;20.80;71.70
18839;DHT22;9548;56.920;14.804;2022-09-21T13:46:46;21.30;74.80
18839;DHT22;9548;56.920;14.804;2022-09-21T13:49:19;21.10;72.20
18839;DHT22;9548;56.920;14.804;2022-09-21T13:51:54;21.00;73.80
18839;DHT22;9548;56.920;14.804;2022-09-21T13:54:24;22.00;71.70
18839;DHT22;9548;56.920;14.804;2022-09-21T13:57:03;24.60;67.30
18839;DHT22;9548;56.920;14.804;2022-09-21T13:59:33;26.60;59.70
18839;DHT22;9548;56.920;14.804;2022-09-21T14:02:01;28.10;59.80
18839;DHT22;9548;56.920;14.804;2022-09-21T14:04:34;30.10;56.90
18839;DHT22;9548;56.920;14.804;2022-09-21T14:07:06;30.60;55.20
18839;DHT22;9548;56.920;14.804;2022-09-21T14:09:39;29.00;55.60
18839;DHT22;9548;56.920;14.804;2022-09-21T14:12:16;27.10;57.50
18839;DHT22;9548;56.920;14.804;2022-09-21T14:15:22;25.40;60.90
18839;DHT22;9548;56.920;14.804;2022-09-21T14:21:16;23.20;65.60
18839;DHT22;9548;56.920;14.804;2022-09-21T14:24:15;22.70;68.40
18839;DHT22;9548;56.920;14.804;2022-09-21T14:27:00;23.60;67.10
18839;DHT22;9548;56.920;14.804;2022-09-21T14:29:32;26.30;61.00
18839;DHT22;9548;56.920;14.804;2022-09-21T14:32:13;25.80;59.90
18839;DHT22;9548;56.920;14.804;2022-09-21T14:34:45;24.40;64.30
18839;DHT22;9548;56.920;14.804;2022-09-21T14:37:22;24.70;64.50
18839;DHT22;9548;56.920;14.804;2022-09-21T14:39:52;26.00;61.10
18839;DHT22;9548;56.920;14.804;2022-09-21T14:42:23;26.40;59.70
18839;DHT22;9548;56.920;14.804;2022-09-21T14:44:55;25.50;60.90
18839;DHT22;9548;56.920;14.804;2022-09-21T14:47:43;24.00;63.50
18839;DHT22;9548;56.920;14.804;2022-09-21T14:50:29;22.30;67.80
18839;DHT22;9548;56.920;14.804;2022-09-21T14:53:15;20.90;71.40
18839;DHT22;9548;56.920;14.804;2022-09-21T14:56:04;19.80;75.50
18839;DHT22;9548;56.920;14.804;2022-09-21T14:58:47;20.70;75.30
18839;DHT22;9548;56.920;14.804;2022-09-21T15:01:33;22.40;72.60
18839;DHT22;9548;56.920;14.804;2022-09-21T15:07:27;25.50;65.60
18839;DHT22;9548;56.920;14.804;2022-09-21T15:10:19;26.00;63.10
18839;DHT22;9548;56.920;14.804;2022-09-21T15:13:14;25.60;64.60
18839;DHT22;9548;56.920;14.804;2022-09-21T15:15:55;27.10;63.60
18839;DHT22;9548;56.920;14.804;2022-09-21T15:18:24;28.10;59.80
18839;DHT22;9548;56.920;14.804;2022-09-21T15:20:55;28.90;58.90
18839;DHT22;9548;56.920;14.804;2022-09-21T15:23:33;28.20;59.10
18839;DHT22;9548;56.920;14.804;2022-09-21T15:26:02;27.20;60.30
18839;DHT22;9548;56.920;14.804;2022-09-21T15:28:34;26.40;62.50
18839;DHT22;9548;56.920;14.804;2022-09-21T15:31:01;25.80;63.50
18839;DHT22;9548;56.920;14.804;2022-09-21T15:33:28;25.50;64.20
18839;DHT22;9548;56.920;14.804;2022-09-21T15:35:59;24.90;66.00
18839;DHT22;9548;56.920;14.804;2022-09-21T15:38:30;24.10;68.50
18839;DHT22;9548;56.920;14.804;2022-09-21T15:40:58;22.90;70.60
18839;DHT22;9548;56.920;14.804;2022-09-21T15:43:25;22.00;72.60
18839;DHT22;9548;56.920;14.804;2022-09-21T15:45:53;20.80;76.10
18839;DHT22;9548;56.920;14.804;2022-09-21T15:48:20;19.90;78.80
18839;DHT22;9548;56.920;14.804;2022-09-21T15:50:51;19.30;80.50
18839;DHT22;9548;56.920;14.804;2022-09-21T15:53:25;18.80;82.10
18839;DHT22;9548;56.920;14.804;2022-09-21T15:55:53;18.30;83.90
18839;DHT22;9548;56.920;14.804;2022-09-21T15:58:29;18.00;86.80
18839;DHT22;9548;56.920;14.804;2022-09-21T16:01:03;17.70;88.80
18839;DHT22;9548;56.920;14.804;2022-09-21T16:03:35;17.40;89.40
18839;DHT22;9548;56.920;14.804;2022-09-21T16:06:23;17.20;90.70
18839;DHT22;9548;56.920;14.804;2022-09-21T16:08:50;17.00;91.50
18839;DHT22;9548;56.920;14.804;2022-09-21T16:11:32;16.90;92.50
18839;DHT22;9548;56.920;14.804;2022-09-21T16:14:05;16.70;93.80
18839;DHT22;9548;56.920;14.804;2022-09-21T16:17:18;16.50;94.60
18839;DHT22;9548;56.920;14.804;2022-09-21T16:20:17;16.30;95.00
18839;DHT22;9548;56.920;14.804;2022-09-21T16:22:46;16.10;95.50
18839;DHT22;9548;56.920;14.804;2022-09-21T16:25:23;15.90;95.00
18839;DHT22;9548;56.920;14.804;2022-09-21T16:27:54;15.70;96.20
18839;DHT22;9548;56.920;14.804;2022-09-21T16:30:45;15.50;97.60